createdAt,value
2019-03-04T00:02:25.131Z,25.40
2019-03-04T00:04:53.603Z,23.45
2019-03-04T00:07:22.123Z,25.05
2019-03-04T00:09:50.667Z,22.60
2019-03-04T00:12:19.191Z,19.87
2019-03-04T00:14:47.643Z,22.02
2019-03-04T00:17:16.209Z,20.17
2019-03-04T00:19:44.744Z,22.25
2019-03-04T00:22:13.276Z,19.85
2019-03-04T00:24:41.832Z,19.95
2019-03-04T00:27:10.291Z,18.23
2019-03-04T00:29:38.749Z,21.57
2019-03-04T00:32:07.246Z,21.30
2019-03-04T00:34:35.772Z,16.52
2019-03-04T00:37:04.299Z,19.50
2019-03-04T00:39:32.851Z,19.48
2019-03-04T00:42:01.375Z,17.17
2019-03-04T00:44:29.833Z,16.70
2019-03-04T00:46:58.316Z,17.55
2019-03-04T00:49:26.767Z,16.10
2019-03-04T00:51:55.223Z,17.00
2019-03-04T00:54:23.783Z,15.88
2019-03-04T00:56:52.234Z,19.15
2019-03-04T00:59:20.999Z,23.55
2019-03-04T01:01:49.484Z,15.53
2019-03-04T01:04:18.015Z,16.85
2019-03-04T01:06:46.484Z,22.87
2019-03-04T01:09:15.759Z,16.25
2019-03-04T01:11:44.783Z,17.23
2019-03-04T01:14:13.240Z,17.25
2019-03-04T01:16:41.719Z,18.20
2019-03-04T01:19:10.712Z,18.67
2019-03-04T01:21:39.158Z,21.75
2019-03-04T01:24:07.647Z,20.08
2019-03-04T01:26:36.108Z,16.48
2019-03-04T01:29:04.634Z,19.60
2019-03-04T01:31:33.190Z,15.70
2019-03-04T01:34:01.645Z,15.08
2019-03-04T01:36:30.106Z,14.10
2019-03-04T01:38:58.671Z,12.53
2019-03-04T01:41:27.128Z,12.05
2019-03-04T01:43:55.655Z,14.95
2019-03-04T01:46:24.151Z,12.23
2019-03-04T01:48:52.619Z,14.03
2019-03-04T01:51:21.139Z,15.85
2019-03-04T01:53:49.634Z,14.05
2019-03-04T01:56:18.092Z,15.70
2019-03-04T01:58:46.545Z,18.45
2019-03-04T02:01:15.229Z,14.20
2019-03-04T02:03:43.765Z,17.95
2019-03-04T02:06:12.369Z,15.18
2019-03-04T02:08:40.852Z,15.43
2019-03-04T02:11:09.455Z,13.10
2019-03-04T02:13:37.911Z,15.63
2019-03-04T02:16:06.480Z,15.05
2019-03-04T02:18:34.935Z,15.95
2019-03-04T02:21:03.407Z,14.40
2019-03-04T02:23:32.008Z,13.38
2019-03-04T02:26:03.536Z,15.15
2019-03-04T02:28:31.987Z,13.58
2019-03-04T02:31:00.523Z,12.47
2019-03-04T02:33:29.016Z,14.30
2019-03-04T02:35:57.641Z,14.47
2019-03-04T02:38:26.175Z,13.13
2019-03-04T02:40:54.707Z,14.00
2019-03-04T02:43:23.165Z,13.75
2019-03-04T02:45:51.794Z,14.87
2019-03-04T02:48:20.251Z,13.22
2019-03-04T02:50:48.776Z,12.80
2019-03-04T02:53:17.348Z,12.88
2019-03-04T02:55:45.887Z,13.95
2019-03-04T02:58:14.494Z,16.70
2019-03-04T03:00:43.456Z,13.08
2019-03-04T03:03:12.219Z,11.88
2019-03-04T03:05:40.740Z,11.43
2019-03-04T03:08:09.427Z,15.23
2019-03-04T03:10:37.885Z,11.43
2019-03-04T03:13:06.484Z,11.85
2019-03-04T03:15:34.976Z,12.55
2019-03-04T03:18:03.496Z,12.90
2019-03-04T03:20:32.039Z,13.28
2019-03-04T03:23:00.620Z,13.18
2019-03-04T03:25:29.233Z,11.85
2019-03-04T03:27:57.766Z,9.93
2019-03-04T03:30:26.409Z,11.60
2019-03-04T03:33:14.213Z,12.00
2019-03-04T03:35:42.776Z,12.07
2019-03-04T03:38:11.295Z,12.68
2019-03-04T03:40:39.835Z,15.70
2019-03-04T03:43:08.476Z,15.23
2019-03-04T03:45:37.068Z,11.25
2019-03-04T03:48:05.742Z,19.20
2019-03-04T03:50:34.372Z,14.95
2019-03-04T03:53:02.900Z,14.95
2019-03-04T03:55:31.358Z,14.55
2019-03-04T03:57:59.911Z,11.10
2019-03-04T04:00:28.441Z,12.75
2019-03-04T04:02:56.977Z,12.47
2019-03-04T04:05:25.607Z,11.12
2019-03-04T04:07:54.131Z,12.50
2019-03-04T04:10:22.662Z,12.30
2019-03-04T04:12:51.283Z,13.20
2019-03-04T04:15:20.581Z,11.45
2019-03-04T04:17:49.203Z,12.88
2019-03-04T04:20:17.815Z,11.03
2019-03-04T04:22:46.340Z,11.28
2019-03-04T04:25:15.112Z,12.60
2019-03-04T04:27:43.735Z,15.07
2019-03-04T04:30:15.403Z,12.53
2019-03-04T04:32:43.859Z,14.65
2019-03-04T04:35:12.484Z,12.98
2019-03-04T04:37:40.931Z,11.73
2019-03-04T04:40:13.460Z,13.15
2019-03-04T04:42:42.027Z,13.98
2019-03-04T04:45:10.983Z,14.13
2019-03-04T04:47:41.170Z,13.98
2019-03-04T04:50:12.983Z,16.20
2019-03-04T04:52:41.435Z,17.48
2019-03-04T04:55:10.023Z,15.72
2019-03-04T04:57:38.528Z,16.50
2019-03-04T05:00:10.086Z,13.25
2019-03-04T05:02:38.535Z,14.68
2019-03-04T05:05:07.359Z,15.15
2019-03-04T05:07:36.124Z,16.60
2019-03-04T05:10:07.787Z,16.67
2019-03-04T05:12:36.279Z,16.25
2019-03-04T05:15:07.472Z,21.20
2019-03-04T05:17:35.995Z,19.73
2019-03-04T05:20:09.931Z,22.42
2019-03-04T05:22:38.470Z,18.48
2019-03-04T05:25:07.051Z,21.35
2019-03-04T05:27:35.543Z,15.93
2019-03-04T05:30:06.279Z,15.63
2019-03-04T05:32:34.742Z,15.03
2019-03-04T05:35:06.701Z,16.27
2019-03-04T05:37:35.304Z,16.12
2019-03-04T05:40:06.164Z,16.95
2019-03-04T05:42:34.655Z,15.38
2019-03-04T05:45:03.290Z,16.77
2019-03-04T05:47:31.823Z,18.30
2019-03-04T05:50:00.344Z,21.02
2019-03-04T05:52:28.804Z,20.32
2019-03-04T05:54:57.338Z,19.62
2019-03-04T05:57:25.823Z,22.45
2019-03-04T05:59:54.271Z,20.52
2019-03-04T06:02:25.041Z,21.65
2019-03-04T06:04:52.947Z,21.75
2019-03-04T06:07:23.118Z,24.18
2019-03-04T06:09:51.817Z,23.22
2019-03-04T06:12:20.404Z,21.82
2019-03-04T06:14:48.899Z,22.82
2019-03-04T06:17:17.355Z,17.10
2019-03-04T06:19:45.847Z,20.82
2019-03-04T06:22:14.312Z,24.15
2019-03-04T06:24:42.771Z,20.37
2019-03-04T06:27:11.276Z,19.98
2019-03-04T06:29:39.727Z,21.35
2019-03-04T06:32:08.190Z,19.23
2019-03-04T06:34:36.763Z,21.42
2019-03-04T06:37:05.282Z,21.85
2019-03-04T06:39:33.853Z,22.30
2019-03-04T06:42:02.413Z,20.97
2019-03-04T06:44:30.956Z,22.77
2019-03-04T06:46:59.480Z,20.82
2019-03-04T06:49:27.992Z,24.37
2019-03-04T06:51:56.525Z,20.55
2019-03-04T06:54:46.251Z,22.90
2019-03-04T06:59:58.252Z,23.70
2019-03-04T07:02:29.789Z,20.52
2019-03-04T07:05:31.659Z,24.55
2019-03-04T07:08:00.131Z,20.10
2019-03-04T07:10:28.661Z,24.00
2019-03-04T07:12:59.219Z,19.35
2019-03-04T07:15:27.695Z,19.40
2019-03-04T07:17:56.221Z,21.40
2019-03-04T07:20:24.856Z,20.05
2019-03-04T07:22:53.341Z,18.15
2019-03-04T07:25:26.305Z,20.43
2019-03-04T07:27:56.729Z,19.32
2019-03-04T07:30:29.767Z,21.73
2019-03-04T07:32:58.271Z,17.98
2019-03-04T07:35:30.848Z,18.92
2019-03-04T07:38:22.131Z,18.50
2019-03-04T07:40:50.895Z,16.30
2019-03-04T07:43:19.423Z,16.62
2019-03-04T07:45:47.895Z,15.65
2019-03-04T07:48:16.584Z,14.60
2019-03-04T07:50:45.151Z,17.00
2019-03-04T07:53:13.710Z,16.95
2019-03-04T07:55:42.339Z,17.02
2019-03-04T07:58:10.803Z,17.60
2019-03-04T08:00:39.408Z,17.20
2019-03-04T08:03:07.907Z,17.20
2019-03-04T08:05:37.908Z,16.57
2019-03-04T08:08:08.827Z,16.35
2019-03-04T08:10:52.635Z,14.18
2019-03-04T08:13:30.513Z,14.78
2019-03-04T08:15:59.485Z,14.65
2019-03-04T08:18:28.068Z,17.82
2019-03-04T08:20:56.623Z,18.90
2019-03-04T08:23:35.397Z,20.90
2019-03-04T08:26:05.503Z,19.83
2019-03-04T08:28:33.983Z,49.13
2019-03-04T08:31:02.557Z,18.50
2019-03-04T08:33:31.139Z,17.23
2019-03-04T08:35:59.602Z,22.07
2019-03-04T08:38:28.232Z,16.62
2019-03-04T08:40:56.692Z,18.23
2019-03-04T08:43:25.151Z,16.60
2019-03-04T08:45:53.843Z,20.57
2019-03-04T08:48:22.307Z,22.70
2019-03-04T08:50:50.855Z,17.55
2019-03-04T08:53:19.516Z,21.37
2019-03-04T08:55:47.977Z,15.78
2019-03-04T08:58:16.606Z,14.43
2019-03-04T09:00:45.219Z,17.02
2019-03-04T09:03:13.763Z,13.13
2019-03-04T09:05:42.291Z,14.83
2019-03-04T09:08:10.852Z,14.25
2019-03-04T09:10:39.375Z,16.73
2019-03-04T09:13:07.906Z,17.10
2019-03-04T09:15:36.620Z,16.32
2019-03-04T09:18:05.531Z,20.00
2019-03-04T09:20:34.063Z,12.90
2019-03-04T09:23:02.703Z,16.75
2019-03-04T09:25:36.930Z,12.53
2019-03-04T09:28:05.533Z,12.10
2019-03-04T09:30:34.278Z,14.28
2019-03-04T09:33:02.904Z,13.20
2019-03-04T09:35:32.640Z,9.78
2019-03-04T09:38:01.473Z,11.63
2019-03-04T09:40:32.310Z,12.78
2019-03-04T09:43:02.480Z,12.25
2019-03-04T09:45:38.441Z,12.05
2019-03-04T09:48:01.458Z,13.32
2019-03-04T09:50:31.539Z,14.35
2019-03-04T09:53:00.145Z,15.32
2019-03-04T09:55:28.768Z,10.28
2019-03-04T09:57:57.371Z,14.68
2019-03-04T10:00:31.703Z,16.35
2019-03-04T10:03:27.103Z,11.22
2019-03-04T10:06:04.725Z,12.90
2019-03-04T10:08:36.351Z,14.18
2019-03-04T10:11:10.463Z,14.80
2019-03-04T10:13:42.007Z,14.53
2019-03-04T10:16:19.315Z,11.95
2019-03-04T10:19:09.504Z,12.35
2019-03-04T10:21:41.062Z,11.30
2019-03-04T10:24:15.535Z,10.35
2019-03-04T10:27:20.373Z,14.30
2019-03-04T10:29:54.800Z,15.28
2019-03-04T10:32:53.796Z,11.88
2019-03-04T10:35:31.051Z,12.53
2019-03-04T10:38:22.292Z,10.85
2019-03-04T10:40:51.065Z,11.30
2019-03-04T10:43:34.768Z,10.88
2019-03-04T10:46:33.288Z,12.78
2019-03-04T10:49:01.843Z,11.60
2019-03-04T10:51:30.448Z,11.97
2019-03-04T10:53:59.047Z,9.53
2019-03-04T10:56:27.614Z,12.55
2019-03-04T10:58:56.075Z,16.93
2019-03-04T11:01:30.346Z,13.10
2019-03-04T11:03:54.919Z,15.03
2019-03-04T11:06:23.672Z,12.68
2019-03-04T11:08:52.177Z,11.87
2019-03-04T11:11:29.424Z,12.95
2019-03-04T11:13:50.923Z,11.95
2019-03-04T11:16:19.451Z,16.77
2019-03-04T11:18:47.962Z,13.85
2019-03-04T11:21:17.703Z,12.05
2019-03-04T11:23:46.203Z,15.15
2019-03-04T11:26:14.763Z,11.38
2019-03-04T11:28:43.459Z,12.33
2019-03-04T11:31:12.207Z,9.87
2019-03-04T11:33:40.921Z,10.13
2019-03-04T11:36:09.585Z,9.03
2019-03-04T11:38:50.063Z,10.45
2019-03-04T11:41:21.176Z,11.53
2019-03-04T11:43:50.875Z,12.37
2019-03-04T11:46:21.028Z,12.05
2019-03-04T11:48:49.587Z,12.65
2019-03-04T11:51:18.150Z,12.60
2019-03-04T11:53:46.648Z,15.90
2019-03-04T11:56:15.248Z,14.28
2019-03-04T11:58:43.774Z,10.08
2019-03-04T12:01:29.495Z,10.32
2019-03-04T12:03:58.027Z,10.13
2019-03-04T12:06:26.555Z,13.30
2019-03-04T12:08:55.035Z,16.25
2019-03-04T12:11:23.499Z,14.15
2019-03-04T12:13:51.967Z,10.30
2019-03-04T12:16:20.629Z,10.93
2019-03-04T12:18:49.229Z,14.55
2019-03-04T12:21:17.799Z,12.88
2019-03-04T12:23:46.555Z,11.78
2019-03-04T12:26:15.136Z,10.45
2019-03-04T12:28:43.690Z,13.05
2019-03-04T12:31:12.334Z,14.28
2019-03-04T12:33:41.055Z,13.38
2019-03-04T12:36:09.602Z,12.30
2019-03-04T12:38:38.230Z,14.90
2019-03-04T12:41:06.822Z,11.33
2019-03-04T12:43:35.377Z,17.37
2019-03-04T12:46:04.040Z,17.80
2019-03-04T12:48:32.799Z,14.78
2019-03-04T12:51:01.431Z,16.95
2019-03-04T12:53:37.094Z,18.20
2019-03-04T12:56:19.727Z,16.55
2019-03-04T12:58:48.308Z,16.00
2019-03-04T13:01:16.857Z,19.05
2019-03-04T13:03:56.501Z,16.37
2019-03-04T13:06:25.027Z,16.75
2019-03-04T13:08:53.487Z,16.93
2019-03-04T13:11:21.979Z,15.30
2019-03-04T13:13:50.513Z,16.90
2019-03-04T13:16:19.023Z,17.02
2019-03-04T13:18:47.598Z,14.05
2019-03-04T13:21:16.050Z,17.52
2019-03-04T13:23:44.531Z,15.72
2019-03-04T13:26:13.452Z,14.65
2019-03-04T13:28:41.988Z,14.38
2019-03-04T13:31:10.528Z,14.05
2019-03-04T13:33:39.173Z,15.18
2019-03-04T13:36:08.068Z,12.75
2019-03-04T13:38:36.621Z,11.73
2019-03-04T13:41:05.259Z,10.48
2019-03-04T13:43:33.743Z,10.72
2019-03-04T13:46:02.347Z,12.82
2019-03-04T13:48:30.991Z,13.90
2019-03-04T13:50:59.521Z,13.93
2019-03-04T13:53:27.978Z,13.22
2019-03-04T13:55:56.488Z,14.87
2019-03-04T13:58:25.022Z,12.93
2019-03-04T14:00:53.549Z,13.40
2019-03-04T14:03:22.042Z,18.85
2019-03-04T14:05:50.509Z,22.35
2019-03-04T14:08:19.126Z,20.72
2019-03-04T14:10:49.171Z,22.57
2019-03-04T14:13:17.811Z,20.35
2019-03-04T14:15:54.152Z,16.80
2019-03-04T14:18:22.632Z,16.87
2019-03-04T14:20:51.156Z,17.48
2019-03-04T14:23:19.655Z,23.83
2019-03-04T14:25:49.848Z,21.05
2019-03-04T14:28:19.012Z,18.57
2019-03-04T14:30:47.517Z,18.52
2019-03-04T14:33:16.161Z,16.75
2019-03-04T14:35:45.014Z,20.40
2019-03-04T14:38:13.651Z,17.53
2019-03-04T14:40:42.190Z,21.65
2019-03-04T14:43:10.716Z,24.65
2019-03-04T14:45:39.276Z,21.48
2019-03-04T14:48:07.811Z,24.35
2019-03-04T14:50:36.339Z,23.18
2019-03-04T14:53:04.977Z,27.15
2019-03-04T14:55:40.127Z,30.43
2019-03-04T14:58:08.677Z,29.82
2019-03-04T15:00:40.352Z,32.73
2019-03-04T15:03:19.086Z,32.70
2019-03-04T15:05:39.416Z,28.20
2019-03-04T15:08:08.064Z,33.38
2019-03-04T15:10:36.537Z,33.10
2019-03-04T15:13:05.203Z,24.15
2019-03-04T15:15:35.307Z,22.37
2019-03-04T15:18:03.920Z,25.97
2019-03-04T15:20:33.938Z,25.40
2019-03-04T15:23:02.567Z,29.07
2019-03-04T15:25:41.651Z,28.80
2019-03-04T15:28:15.915Z,33.40
2019-03-04T15:30:47.571Z,28.83
2019-03-04T15:33:18.514Z,29.00
2019-03-04T15:35:46.458Z,33.18
2019-03-04T15:38:14.989Z,30.95
2019-03-04T15:40:43.515Z,36.98
2019-03-04T15:43:12.087Z,33.95
2019-03-04T15:45:42.332Z,30.00
2019-03-04T15:48:11.016Z,32.53
2019-03-04T15:50:39.591Z,34.40
2019-03-04T15:53:08.098Z,26.95
2019-03-04T15:55:36.656Z,26.17
2019-03-04T15:58:05.497Z,24.35
2019-03-04T16:00:35.604Z,24.70
2019-03-04T16:03:05.343Z,20.92
2019-03-04T16:08:07.594Z,24.18
2019-03-04T16:10:35.399Z,24.75
2019-03-04T16:13:03.963Z,27.30
2019-03-04T16:15:33.065Z,25.57
2019-03-04T16:18:01.528Z,26.93
2019-03-04T16:20:30.177Z,28.25
2019-03-04T16:22:58.887Z,28.75
2019-03-04T16:25:27.420Z,28.67
2019-03-04T16:28:01.266Z,31.73
2019-03-04T16:30:30.023Z,28.77
2019-03-04T16:32:59.191Z,30.23
2019-03-04T16:35:27.775Z,28.57
2019-03-04T16:37:56.373Z,29.05
2019-03-04T16:40:25.897Z,25.88
2019-03-04T16:42:54.398Z,25.00
2019-03-04T16:45:23.603Z,26.57
2019-03-04T16:48:11.572Z,24.35
2019-03-04T16:50:44.765Z,25.80
2019-03-04T16:53:31.191Z,29.95
2019-03-04T16:55:59.723Z,27.77
2019-03-04T16:58:28.257Z,26.40
2019-03-04T17:00:57.093Z,30.43
2019-03-04T17:03:25.550Z,28.47
2019-03-04T17:05:54.254Z,33.65
2019-03-04T17:08:22.807Z,33.40
2019-03-04T17:10:52.885Z,30.12
2019-03-04T17:13:21.487Z,38.80
2019-03-04T17:15:50.198Z,34.92
2019-03-04T17:18:18.655Z,25.73
2019-03-04T17:20:47.192Z,25.85
2019-03-04T17:23:15.870Z,32.88
2019-03-04T17:25:44.463Z,37.73
2019-03-04T17:28:13.067Z,36.13
2019-03-04T17:30:41.913Z,31.97
2019-03-04T17:33:10.524Z,38.70
2019-03-04T17:35:39.231Z,39.88
2019-03-04T17:38:07.732Z,46.87
2019-03-04T17:40:36.195Z,41.23
2019-03-04T17:43:04.909Z,36.60
2019-03-04T17:45:33.696Z,52.90
2019-03-04T17:48:02.227Z,52.78
2019-03-04T17:50:41.622Z,41.10
2019-03-04T17:53:12.298Z,39.95
2019-03-04T17:55:41.151Z,32.08
2019-03-04T17:58:09.822Z,25.27
2019-03-04T18:00:39.995Z,27.77
2019-03-04T18:03:08.688Z,22.58
2019-03-04T18:05:37.313Z,21.42
2019-03-04T18:08:05.916Z,19.60
2019-03-04T18:10:34.585Z,16.12
2019-03-04T18:13:05.723Z,19.40
2019-03-04T18:15:41.663Z,13.60
2019-03-04T18:18:10.373Z,15.03
2019-03-04T18:20:38.963Z,17.62
2019-03-04T18:23:07.563Z,16.20
2019-03-04T18:25:54.634Z,19.02
2019-03-04T18:28:31.866Z,12.55
2019-03-04T18:31:27.504Z,15.35
2019-03-04T18:34:01.718Z,10.00
2019-03-04T18:36:42.150Z,12.20
2019-03-04T18:39:25.836Z,12.50
2019-03-04T18:42:12.522Z,13.18
2019-03-04T18:44:49.971Z,15.25
2019-03-04T18:47:40.909Z,14.85
2019-03-04T18:50:09.500Z,17.00
2019-03-04T18:52:38.046Z,20.55
2019-03-04T18:55:08.678Z,21.25
2019-03-04T18:57:37.276Z,17.87
2019-03-04T19:00:15.889Z,17.77
2019-03-04T19:02:44.355Z,11.10
2019-03-04T19:05:13.250Z,13.88
2019-03-04T19:07:41.885Z,13.13
2019-03-04T19:10:12.183Z,11.53
2019-03-04T19:12:40.906Z,10.28
2019-03-04T19:15:11.221Z,9.50
2019-03-04T19:17:39.675Z,10.65
2019-03-04T19:20:19.821Z,16.65
2019-03-04T19:22:48.276Z,13.48
2019-03-04T19:25:16.731Z,12.03
2019-03-04T19:27:45.291Z,15.53
2019-03-04T19:30:15.391Z,11.12
2019-03-04T19:32:44.082Z,9.95
2019-03-04T19:35:14.308Z,10.45
2019-03-04T19:37:43.084Z,10.15
2019-03-04T19:40:16.500Z,12.43
2019-03-04T19:42:45.203Z,12.30
2019-03-04T19:45:18.384Z,13.30
2019-03-04T19:47:47.080Z,12.10
2019-03-04T19:50:16.196Z,14.00
2019-03-04T19:52:45.188Z,7.85
2019-03-04T19:55:15.427Z,9.33
2019-03-04T19:57:44.002Z,8.55
2019-03-04T20:00:21.983Z,8.65
2019-03-04T20:02:50.704Z,7.53
2019-03-04T20:05:20.368Z,5.70
2019-03-04T20:07:49.091Z,5.50
2019-03-04T20:10:18.087Z,11.33
2019-03-04T20:12:46.882Z,7.33
2019-03-04T20:15:26.750Z,9.60
2019-03-04T20:17:56.593Z,11.53
2019-03-04T20:20:25.465Z,9.05
2019-03-04T20:22:54.131Z,9.20
2019-03-04T20:25:23.533Z,10.82
2019-03-04T20:27:52.308Z,13.65
2019-03-04T20:30:22.228Z,13.18
2019-03-04T20:32:51.167Z,8.33
2019-03-04T20:35:20.483Z,11.57
2019-03-04T20:37:52.134Z,15.18
2019-03-04T20:40:20.987Z,11.12
2019-03-04T20:42:49.543Z,15.70
2019-03-04T20:45:19.934Z,14.55
2019-03-04T20:47:48.539Z,16.32
2019-03-04T20:50:20.072Z,16.82
2019-03-04T20:52:48.930Z,12.93
2019-03-04T20:55:17.795Z,12.25
2019-03-04T20:57:46.798Z,16.67
2019-03-04T21:00:25.983Z,11.88
2019-03-04T21:02:54.794Z,12.18
2019-03-04T21:05:25.722Z,14.97
2019-03-04T21:07:54.144Z,15.48
2019-03-04T21:10:22.747Z,18.87
2019-03-04T21:12:52.415Z,17.07
2019-03-04T21:15:21.046Z,19.75
2019-03-04T21:17:49.813Z,18.12
2019-03-04T21:20:19.212Z,18.55
2019-03-04T21:22:48.050Z,10.70
2019-03-04T21:25:54.377Z,18.82
2019-03-04T21:28:49.547Z,14.78
2019-03-04T21:31:43.363Z,13.88
2019-03-04T21:34:40.786Z,12.93
2019-03-04T21:37:21.539Z,14.00
2019-03-04T21:39:59.092Z,10.38
2019-03-04T21:42:33.528Z,13.30
2019-03-04T21:45:05.100Z,13.28
2019-03-04T21:47:45.924Z,14.53
2019-03-04T21:50:17.626Z,14.30
2019-03-04T21:52:57.729Z,15.75
2019-03-04T21:55:31.874Z,14.90
2019-03-04T21:58:00.638Z,22.00
2019-03-04T22:00:32.468Z,19.37
2019-03-04T22:03:04.099Z,18.67
2019-03-04T22:05:32.679Z,20.12
2019-03-04T22:08:01.266Z,20.92
2019-03-04T22:10:30.002Z,23.30
2019-03-04T22:12:58.661Z,20.72
2019-03-04T22:15:27.727Z,22.15
2019-03-04T22:17:56.532Z,20.00
2019-03-04T22:20:25.234Z,24.03
2019-03-04T22:22:53.894Z,21.45
2019-03-04T22:25:22.548Z,25.97
2019-03-04T22:27:51.128Z,23.70
2019-03-04T22:30:20.351Z,22.67
2019-03-04T22:32:49.042Z,24.35
2019-03-04T22:35:17.786Z,24.50
2019-03-04T22:37:46.504Z,19.87
2019-03-04T22:40:26.818Z,27.00
2019-03-04T22:42:55.666Z,27.58
2019-03-04T22:45:24.309Z,27.55
2019-03-04T22:47:53.170Z,28.42
2019-03-04T22:50:22.843Z,26.93
2019-03-04T22:55:31.193Z,26.77
2019-03-04T22:57:59.700Z,26.40
2019-03-04T23:00:54.098Z,22.00
2019-03-04T23:03:25.225Z,27.73
2019-03-04T23:05:59.590Z,23.52
2019-03-04T23:08:28.120Z,23.55
2019-03-04T23:10:56.576Z,23.18
2019-03-04T23:13:40.243Z,23.57
2019-03-04T23:16:18.225Z,27.75
2019-03-04T23:18:46.723Z,27.35
2019-03-04T23:21:15.255Z,32.05
2019-03-04T23:23:43.860Z,24.67
2019-03-04T23:26:12.363Z,28.77
2019-03-04T23:28:40.815Z,22.58
2019-03-04T23:31:09.415Z,26.05
2019-03-04T23:33:37.975Z,30.35
2019-03-04T23:36:06.576Z,17.57
2019-03-04T23:38:35.100Z,25.23
2019-03-04T23:41:03.669Z,19.20
2019-03-04T23:43:32.996Z,20.82
2019-03-04T23:46:01.603Z,18.87
2019-03-04T23:48:30.336Z,19.23
2019-03-04T23:50:58.941Z,21.97
2019-03-04T23:53:27.468Z,19.32
2019-03-04T23:55:55.965Z,14.40
2019-03-04T23:58:24.497Z,15.13
